createdAt,value
2022-12-01T00:00:55.487Z,0.60
2022-12-01T00:03:42.687Z,0.60
2022-12-01T00:06:31.239Z,0.60
2022-12-01T00:09:35.647Z,0.60
2022-12-01T00:12:23.009Z,0.60
2022-12-01T00:15:10.629Z,0.50
2022-12-01T00:17:59.352Z,0.50
2022-12-01T00:20:49.013Z,0.50
2022-12-01T00:23:37.353Z,0.50
2022-12-01T00:26:26.873Z,0.50
2022-12-01T00:29:13.980Z,0.50
2022-12-01T00:32:01.330Z,0.60
2022-12-01T00:34:48.621Z,0.50
2022-12-01T00:37:36.664Z,0.60
2022-12-01T00:40:24.832Z,0.60
2022-12-01T00:43:12.110Z,0.50
2022-12-01T00:45:59.090Z,0.50
2022-12-01T00:48:45.880Z,0.60
2022-12-01T00:51:33.032Z,0.60
2022-12-01T00:54:20.576Z,0.60
2022-12-01T00:57:09.283Z,0.60
2022-12-01T00:59:56.219Z,0.60
2022-12-01T01:02:43.312Z,0.60
2022-12-01T01:05:30.478Z,0.60
2022-12-01T01:08:17.619Z,0.60
2022-12-01T01:11:05.575Z,0.60
2022-12-01T01:13:54.002Z,0.60
2022-12-01T01:16:41.164Z,0.60
2022-12-01T01:19:28.360Z,0.60
2022-12-01T01:22:15.523Z,0.60
2022-12-01T01:25:02.767Z,0.60
2022-12-01T01:27:49.640Z,0.60
2022-12-01T01:30:40.864Z,0.60
2022-12-01T01:33:27.824Z,0.60
2022-12-01T01:36:15.861Z,0.60
2022-12-01T01:39:03.471Z,0.60
2022-12-01T01:41:50.390Z,0.60
2022-12-01T01:44:53.101Z,0.60
2022-12-01T01:47:42.657Z,0.60
2022-12-01T01:50:30.227Z,0.60
2022-12-01T01:53:17.485Z,0.60
2022-12-01T01:56:05.700Z,0.50
2022-12-01T01:58:54.239Z,0.50
2022-12-01T02:01:41.126Z,0.60
2022-12-01T02:04:30.546Z,0.60
2022-12-01T02:07:19.968Z,0.60
2022-12-01T02:10:10.142Z,0.60
2022-12-01T02:13:17.554Z,0.60
2022-12-01T02:16:11.137Z,0.50
2022-12-01T02:19:07.121Z,0.60
2022-12-01T02:22:09.286Z,0.60
2022-12-01T02:25:29.802Z,0.60
2022-12-01T02:28:47.415Z,0.60
2022-12-01T02:31:44.259Z,0.60
2022-12-01T02:34:32.369Z,0.50
2022-12-01T02:37:27.243Z,0.50
2022-12-01T02:40:20.295Z,0.50
2022-12-01T02:43:17.382Z,0.50
2022-12-01T02:46:08.288Z,0.50
2022-12-01T02:49:00.712Z,0.50
2022-12-01T02:51:49.005Z,0.50
2022-12-01T02:54:36.822Z,0.50
2022-12-01T02:57:24.674Z,0.50
2022-12-01T03:00:13.913Z,0.60
2022-12-01T03:03:12.964Z,0.60
2022-12-01T03:06:12.530Z,0.60
2022-12-01T03:09:10.438Z,0.60
2022-12-01T03:12:05.799Z,0.60
2022-12-01T03:15:00.040Z,0.60
2022-12-01T03:17:53.798Z,0.60
2022-12-01T03:20:45.380Z,0.60
2022-12-01T03:23:38.690Z,0.60
2022-12-01T03:26:30.680Z,0.60
2022-12-01T03:29:24.547Z,0.60
2022-12-01T03:44:07.239Z,0.60
2022-12-01T03:46:58.358Z,0.60
2022-12-01T03:49:47.415Z,0.60
2022-12-01T03:52:42.927Z,0.60
2022-12-01T03:55:31.440Z,0.60
2022-12-01T03:58:22.364Z,0.60
2022-12-01T04:01:10.903Z,0.60
2022-12-01T04:04:01.485Z,0.60
2022-12-01T04:06:51.408Z,0.60
2022-12-01T04:09:38.530Z,0.70
2022-12-01T04:12:32.977Z,0.70
2022-12-01T04:15:20.347Z,0.70
2022-12-01T04:18:08.926Z,0.70
2022-12-01T04:20:55.856Z,0.70
2022-12-01T04:24:00.183Z,0.70
2022-12-01T04:26:47.512Z,0.70
2022-12-01T04:29:35.279Z,0.70
2022-12-01T04:32:22.314Z,0.70
2022-12-01T04:35:12.796Z,0.70
2022-12-01T04:38:01.088Z,0.70
2022-12-01T04:40:48.232Z,0.70
2022-12-01T04:43:35.389Z,0.70
2022-12-01T04:46:22.723Z,0.70
2022-12-01T04:49:09.755Z,0.70
2022-12-01T04:51:58.128Z,0.70
2022-12-01T04:54:45.292Z,0.80
2022-12-01T04:57:32.541Z,0.80
2022-12-01T05:00:19.899Z,0.80
2022-12-01T05:03:10.766Z,0.80
2022-12-01T05:06:03.930Z,0.80
2022-12-01T05:08:52.785Z,0.80
2022-12-01T05:11:39.799Z,0.80
2022-12-01T05:14:27.154Z,0.80
2022-12-01T05:17:13.880Z,0.80
2022-12-01T05:20:18.460Z,0.80
2022-12-01T05:23:06.403Z,0.80
2022-12-01T05:25:55.996Z,0.80
2022-12-01T05:28:43.147Z,0.80
2022-12-01T05:31:30.737Z,0.90
2022-12-01T05:34:17.989Z,0.90
2022-12-01T05:37:05.829Z,0.90
2022-12-01T05:39:52.601Z,0.90
2022-12-01T05:42:41.516Z,0.90
2022-12-01T05:45:28.870Z,0.90
2022-12-01T05:48:17.070Z,0.90
2022-12-01T05:51:10.093Z,0.90
2022-12-01T05:53:57.189Z,0.90
2022-12-01T05:56:44.449Z,0.90
2022-12-01T05:59:33.068Z,0.90
2022-12-01T06:02:20.340Z,0.90
2022-12-01T06:05:08.554Z,0.90
2022-12-01T06:07:55.607Z,0.90
2022-12-01T06:10:42.696Z,0.90
2022-12-01T06:13:29.361Z,0.90
2022-12-01T06:16:18.268Z,0.90
2022-12-01T06:19:05.930Z,1.00
2022-12-01T06:21:53.334Z,1.00
2022-12-01T06:24:40.415Z,1.00
2022-12-01T06:27:27.269Z,1.00
2022-12-01T06:30:14.837Z,1.00
2022-12-01T06:33:03.461Z,1.00
2022-12-01T06:35:50.282Z,1.00
2022-12-01T06:38:38.409Z,1.00
2022-12-01T06:41:25.441Z,1.00
2022-12-01T06:44:12.755Z,1.00
2022-12-01T06:46:59.753Z,1.00
2022-12-01T06:49:48.297Z,1.00
2022-12-01T06:52:35.806Z,1.00
2022-12-01T06:55:23.028Z,1.10
2022-12-01T06:58:10.658Z,1.10
2022-12-01T07:00:59.239Z,1.10
2022-12-01T07:03:49.607Z,1.10
2022-12-01T07:06:38.292Z,1.20
2022-12-01T07:09:25.420Z,1.20
2022-12-01T07:12:12.691Z,1.20
2022-12-01T07:15:00.022Z,1.30
2022-12-01T07:17:47.123Z,1.30
2022-12-01T07:20:34.471Z,1.30
2022-12-01T07:23:23.051Z,1.30
2022-12-01T07:26:12.632Z,1.30
2022-12-01T07:28:59.803Z,1.40
2022-12-01T07:31:46.823Z,1.40
2022-12-01T07:34:34.048Z,1.50
2022-12-01T07:37:21.286Z,1.50
2022-12-01T07:40:11.207Z,1.50
2022-12-01T07:42:58.427Z,1.50
2022-12-01T07:45:45.589Z,1.60
2022-12-01T07:48:32.702Z,1.50
2022-12-01T07:51:20.178Z,1.60
2022-12-01T07:54:07.867Z,1.60
2022-12-01T07:56:56.122Z,1.60
2022-12-01T07:59:42.918Z,1.70
2022-12-01T08:02:30.161Z,1.70
2022-12-01T08:05:17.204Z,1.80
2022-12-01T08:08:04.511Z,1.90
2022-12-01T08:10:51.665Z,2.00
2022-12-01T08:13:40.549Z,2.00
2022-12-01T08:16:27.865Z,2.10
2022-12-01T08:19:15.402Z,2.10
2022-12-01T08:22:02.668Z,2.20
2022-12-01T08:24:49.876Z,2.30
2022-12-01T08:27:37.069Z,2.30
2022-12-01T08:30:25.421Z,2.30
2022-12-01T08:33:12.553Z,2.40
2022-12-01T08:36:02.833Z,2.40
2022-12-01T08:38:53.309Z,2.40
2022-12-01T08:41:40.277Z,2.50
2022-12-01T08:44:27.413Z,2.50
2022-12-01T08:47:18.955Z,2.60
2022-12-01T08:50:07.551Z,2.60
2022-12-01T08:52:54.823Z,2.70
2022-12-01T08:55:41.615Z,2.60
2022-12-01T08:58:29.568Z,2.60
2022-12-01T09:01:18.210Z,2.70
2022-12-01T09:04:08.690Z,2.70
2022-12-01T09:06:57.569Z,2.70
2022-12-01T09:09:46.180Z,2.70
2022-12-01T09:12:33.378Z,2.70
2022-12-01T09:15:20.870Z,2.70
2022-12-01T09:18:07.775Z,2.80
2022-12-01T09:20:57.202Z,2.70
2022-12-01T09:23:44.519Z,2.70
2022-12-01T09:26:32.405Z,2.70
2022-12-01T09:29:19.405Z,2.70
2022-12-01T09:32:06.551Z,2.70
2022-12-01T09:34:53.538Z,2.70
2022-12-01T09:37:41.940Z,2.70
2022-12-01T09:40:33.016Z,2.70
2022-12-01T09:43:23.859Z,2.80
2022-12-01T09:46:17.760Z,2.80
2022-12-01T09:49:05.175Z,2.80
2022-12-01T09:51:53.860Z,2.80
2022-12-01T09:54:42.463Z,2.80
2022-12-01T09:57:33.698Z,2.80
2022-12-01T10:00:24.471Z,2.80
2022-12-01T10:03:23.517Z,2.80
2022-12-01T10:06:27.270Z,2.80
2022-12-01T10:09:22.608Z,2.80
2022-12-01T10:12:15.928Z,2.80
2022-12-01T10:15:25.140Z,2.90
2022-12-01T10:18:22.663Z,2.90
2022-12-01T10:21:16.012Z,2.90
2022-12-01T10:24:24.413Z,2.90
2022-12-01T10:27:25.163Z,3.00
2022-12-01T10:30:16.949Z,3.00
2022-12-01T10:33:11.234Z,3.00
2022-12-01T10:35:59.032Z,3.00
2022-12-01T10:38:46.031Z,3.00
2022-12-01T10:41:38.121Z,3.00
2022-12-01T10:44:26.844Z,3.00
2022-12-01T10:47:20.832Z,3.10
2022-12-01T10:50:09.247Z,3.10
2022-12-01T10:52:55.867Z,3.20
2022-12-01T10:55:47.928Z,3.20
2022-12-01T10:58:43.443Z,3.20
2022-12-01T11:01:35.770Z,3.20
2022-12-01T11:04:42.574Z,3.20
2022-12-01T11:07:33.612Z,3.20
2022-12-01T11:10:23.891Z,3.20
2022-12-01T11:13:21.708Z,3.20
2022-12-01T11:16:30.344Z,3.20
2022-12-01T11:19:33.280Z,3.30
2022-12-01T11:22:23.300Z,3.30
2022-12-01T11:25:21.182Z,3.30
2022-12-01T11:28:08.245Z,3.30
2022-12-01T11:30:58.739Z,3.30
2022-12-01T11:33:49.963Z,3.30
2022-12-01T11:36:44.021Z,3.30
2022-12-01T11:39:33.577Z,3.30
2022-12-01T11:42:25.928Z,3.30
2022-12-01T11:45:25.879Z,3.30
2022-12-01T11:48:26.741Z,3.30
2022-12-01T11:51:27.535Z,3.30
2022-12-01T11:54:18.552Z,3.30
2022-12-01T11:57:33.155Z,3.40
2022-12-01T12:00:20.381Z,3.30
2022-12-01T12:03:21.098Z,3.30
2022-12-01T12:06:39.484Z,3.40
2022-12-01T12:09:47.159Z,3.40
2022-12-01T12:12:47.751Z,3.30
2022-12-01T12:15:43.233Z,3.30
2022-12-01T12:18:49.900Z,3.30
2022-12-01T12:21:48.053Z,3.20
2022-12-01T12:24:51.645Z,3.20
2022-12-01T12:27:48.161Z,3.20
2022-12-01T12:30:43.746Z,3.20
2022-12-01T12:33:47.410Z,3.10
2022-12-01T12:36:44.588Z,3.10
2022-12-01T12:39:50.702Z,3.20
2022-12-01T12:42:48.980Z,3.20
2022-12-01T12:45:44.595Z,3.10
2022-12-01T12:49:21.439Z,3.10
2022-12-01T12:52:14.172Z,3.00
2022-12-01T12:55:12.854Z,3.00
2022-12-01T12:58:08.020Z,3.00
2022-12-01T13:01:02.688Z,3.00
2022-12-01T13:03:56.407Z,3.00
2022-12-01T13:06:46.997Z,3.00
2022-12-01T13:09:39.119Z,3.00
2022-12-01T13:12:31.114Z,3.00
2022-12-01T13:15:20.774Z,2.90
2022-12-01T13:18:17.970Z,3.00
2022-12-01T13:21:06.778Z,2.90
2022-12-01T13:23:54.271Z,2.90
2022-12-01T13:26:44.412Z,2.90
2022-12-01T13:29:43.711Z,2.90
2022-12-01T13:32:35.639Z,2.90
2022-12-01T13:35:26.771Z,2.90
2022-12-01T13:38:26.096Z,2.90
2022-12-01T13:41:24.366Z,2.90
2022-12-01T13:44:23.719Z,2.90
2022-12-01T13:47:38.797Z,2.90
2022-12-01T13:50:54.392Z,2.80
2022-12-01T13:53:58.806Z,2.80
2022-12-01T13:56:59.593Z,2.80
2022-12-01T14:00:21.687Z,2.80
2022-12-01T14:03:49.236Z,2.80
2022-12-01T14:06:46.423Z,2.80
2022-12-01T14:09:36.902Z,2.70
2022-12-01T14:12:29.154Z,2.80
2022-12-01T14:15:30.870Z,2.70
2022-12-01T14:18:36.792Z,2.70
2022-12-01T14:21:44.936Z,2.70
2022-12-01T14:24:36.477Z,2.70
2022-12-01T14:27:35.858Z,2.70
2022-12-01T14:31:14.924Z,2.70
2022-12-01T14:34:03.445Z,2.70
2022-12-01T14:36:56.857Z,2.60
2022-12-01T14:39:47.123Z,2.70
2022-12-01T14:42:55.117Z,2.60
2022-12-01T14:45:49.557Z,2.60
2022-12-01T14:48:42.222Z,2.60
2022-12-01T14:51:32.344Z,2.60
2022-12-01T14:54:26.901Z,2.60
2022-12-01T14:57:17.460Z,2.60
2022-12-01T15:00:11.049Z,2.60
2022-12-01T15:03:01.230Z,2.60
2022-12-01T15:05:48.250Z,2.50
2022-12-01T15:08:43.466Z,2.50
2022-12-01T15:11:33.263Z,2.60
2022-12-01T15:14:26.526Z,2.50
2022-12-01T15:17:30.098Z,2.50
2022-12-01T15:20:29.726Z,2.50
2022-12-01T15:23:18.274Z,2.50
2022-12-01T15:26:05.732Z,2.60
2022-12-01T15:29:06.247Z,2.50
2022-12-01T15:31:55.281Z,2.60
2022-12-01T15:34:44.769Z,2.50
2022-12-01T15:37:41.683Z,2.50
2022-12-01T15:43:41.401Z,2.50
2022-12-01T15:46:31.707Z,2.50
2022-12-01T15:49:21.339Z,2.50
2022-12-01T15:52:11.315Z,2.50
2022-12-01T15:55:03.128Z,2.50
2022-12-01T15:57:50.068Z,2.50
2022-12-01T16:00:37.244Z,2.50
2022-12-01T16:03:25.939Z,2.50
2022-12-01T16:06:13.733Z,2.50
2022-12-01T16:09:03.003Z,2.50
2022-12-01T16:12:06.026Z,2.50
2022-12-01T16:15:04.244Z,2.50
2022-12-01T16:17:52.951Z,2.50
2022-12-01T16:20:44.327Z,2.50
2022-12-01T16:23:32.208Z,2.50
2022-12-01T16:26:19.467Z,2.50
2022-12-01T16:29:19.959Z,2.50
2022-12-01T16:32:21.609Z,2.50
2022-12-01T16:35:25.337Z,2.50
2022-12-01T16:38:16.502Z,2.50
2022-12-01T16:41:15.200Z,2.50
2022-12-01T16:44:26.941Z,2.50
2022-12-01T16:47:16.023Z,2.50
2022-12-01T16:50:03.060Z,2.50
2022-12-01T16:52:50.638Z,2.50
2022-12-01T16:55:44.610Z,2.40
2022-12-01T16:58:31.600Z,2.50
2022-12-01T17:01:18.699Z,2.50
2022-12-01T17:04:07.796Z,2.40
2022-12-01T17:06:55.529Z,2.50
2022-12-01T17:09:42.730Z,2.50
2022-12-01T17:12:31.311Z,2.50
2022-12-01T17:15:18.550Z,2.50
2022-12-01T17:18:06.166Z,2.50
2022-12-01T17:21:00.231Z,2.50
2022-12-01T17:23:47.287Z,2.50
2022-12-01T17:26:34.095Z,2.50
2022-12-01T17:29:26.434Z,2.50
2022-12-01T17:32:14.367Z,2.50
2022-12-01T17:35:01.635Z,2.50
2022-12-01T17:37:48.402Z,2.50
2022-12-01T17:40:35.572Z,2.50
2022-12-01T17:43:23.274Z,2.40
2022-12-01T17:46:13.568Z,2.50
2022-12-01T17:49:00.827Z,2.50
2022-12-01T17:51:48.105Z,2.50
2022-12-01T17:54:35.329Z,2.40
2022-12-01T17:57:22.351Z,2.50
2022-12-01T18:00:10.384Z,2.50
2022-12-01T18:02:59.089Z,2.40
2022-12-01T18:05:46.231Z,2.40
2022-12-01T18:08:35.446Z,2.50
2022-12-01T18:11:23.909Z,2.40
2022-12-01T18:14:11.467Z,2.40
2022-12-01T18:16:58.487Z,2.40
2022-12-01T18:19:47.518Z,2.40
2022-12-01T18:22:34.403Z,2.40
2022-12-01T18:25:22.176Z,2.40
2022-12-01T18:28:11.156Z,2.40
2022-12-01T18:31:03.421Z,2.40
2022-12-01T18:33:50.553Z,2.40
2022-12-01T18:36:41.246Z,2.40
2022-12-01T18:39:28.318Z,2.40
2022-12-01T18:42:15.501Z,2.40
2022-12-01T18:45:02.567Z,2.40
2022-12-01T18:47:49.586Z,2.40
2022-12-01T18:50:36.567Z,2.40
2022-12-01T18:53:24.891Z,2.40
2022-12-01T18:56:12.879Z,2.40
2022-12-01T18:59:03.805Z,2.30
2022-12-01T19:01:50.877Z,2.30
2022-12-01T19:04:38.159Z,2.30
2022-12-01T19:07:29.495Z,2.30
2022-12-01T19:10:19.020Z,2.40
2022-12-01T19:13:05.858Z,2.30
2022-12-01T19:15:53.072Z,2.40
2022-12-01T19:18:40.544Z,2.30
2022-12-01T19:21:27.532Z,2.30
2022-12-01T19:24:14.908Z,2.30
2022-12-01T19:27:04.491Z,2.30
2022-12-01T19:29:52.318Z,2.30
2022-12-01T19:32:40.238Z,2.30
2022-12-01T19:35:27.480Z,2.30
2022-12-01T19:38:14.447Z,2.30
2022-12-01T19:41:01.849Z,2.30
2022-12-01T19:43:50.193Z,2.20
2022-12-01T19:46:37.151Z,2.20
2022-12-01T19:49:26.149Z,2.30
2022-12-01T19:52:13.095Z,2.30
2022-12-01T19:55:00.204Z,2.20
2022-12-01T19:57:51.410Z,2.20
2022-12-01T20:00:39.884Z,2.20
2022-12-01T20:03:26.752Z,2.30
2022-12-01T20:06:16.096Z,2.20
2022-12-01T20:09:06.244Z,2.20
2022-12-01T20:11:54.327Z,2.20
2022-12-01T20:14:41.465Z,2.20
2022-12-01T20:17:30.586Z,2.20
2022-12-01T20:20:17.812Z,2.20
2022-12-01T20:23:04.733Z,2.30
2022-12-01T20:25:51.947Z,2.20
2022-12-01T20:28:39.801Z,2.20
2022-12-01T20:31:28.910Z,2.20
2022-12-01T20:34:19.506Z,2.20
2022-12-01T20:37:06.793Z,2.20
2022-12-01T20:39:54.191Z,2.20
2022-12-01T20:42:42.073Z,2.20
2022-12-01T20:45:29.355Z,2.20
2022-12-01T20:48:16.640Z,2.20
2022-12-01T20:51:06.993Z,2.10
2022-12-01T20:54:19.788Z,2.10
2022-12-01T20:57:01.355Z,2.10
2022-12-01T20:59:48.481Z,2.10
2022-12-01T21:02:35.727Z,2.20
2022-12-01T21:05:22.962Z,2.10
2022-12-01T21:08:13.304Z,2.10
2022-12-01T21:11:06.015Z,2.10
2022-12-01T21:13:51.990Z,2.10
2022-12-01T21:16:39.966Z,2.10
2022-12-01T21:19:32.412Z,2.10
2022-12-01T21:22:20.219Z,2.00
2022-12-01T21:25:15.498Z,2.00
2022-12-01T21:28:11.258Z,2.00
2022-12-01T21:31:03.373Z,2.00
2022-12-01T21:33:50.576Z,2.00
2022-12-01T21:36:37.726Z,2.00
2022-12-01T21:39:26.495Z,2.00
2022-12-01T21:42:21.137Z,2.00
2022-12-01T21:45:19.193Z,2.00
2022-12-01T21:48:15.860Z,2.00
2022-12-01T21:51:03.667Z,2.10
2022-12-01T21:53:51.730Z,2.00
2022-12-01T21:56:38.938Z,2.00
2022-12-01T21:59:27.371Z,2.00
2022-12-01T22:02:35.848Z,2.00
2022-12-01T22:05:29.714Z,2.00
2022-12-01T22:08:24.480Z,1.90
2022-12-01T22:11:16.139Z,2.00
2022-12-01T22:14:21.956Z,2.00
2022-12-01T22:17:17.814Z,2.00
2022-12-01T22:20:22.279Z,2.00
2022-12-01T22:23:13.445Z,2.00
2022-12-01T22:26:01.421Z,2.00
2022-12-01T22:28:48.653Z,2.00
2022-12-01T22:31:35.788Z,2.00
2022-12-01T22:34:24.291Z,1.90
2022-12-01T22:37:16.123Z,2.00
2022-12-01T22:40:23.704Z,1.90
2022-12-01T22:43:27.260Z,1.90
2022-12-01T22:46:26.497Z,1.90
2022-12-01T22:49:22.249Z,1.90
2022-12-01T22:52:19.706Z,1.90
2022-12-01T22:55:16.150Z,1.90
2022-12-01T22:58:09.406Z,1.80
2022-12-01T23:00:58.102Z,1.90
2022-12-01T23:03:45.467Z,1.90
2022-12-01T23:06:58.670Z,1.80
2022-12-01T23:09:47.053Z,1.80
2022-12-01T23:12:36.188Z,1.90
2022-12-01T23:15:29.248Z,1.80
2022-12-01T23:18:20.105Z,1.80
2022-12-01T23:21:08.256Z,1.80
2022-12-01T23:23:55.601Z,1.80
2022-12-01T23:26:46.484Z,1.80
2022-12-01T23:29:34.225Z,1.80
2022-12-01T23:32:21.031Z,1.80
2022-12-01T23:35:14.950Z,1.80
2022-12-01T23:38:02.189Z,1.80
2022-12-01T23:40:50.287Z,1.80
2022-12-01T23:43:43.724Z,1.80
2022-12-01T23:46:30.813Z,1.80
2022-12-01T23:49:21.558Z,1.70
2022-12-01T23:52:13.987Z,1.70
2022-12-01T23:55:01.602Z,1.70
2022-12-01T23:57:48.963Z,1.70
